KCFD/CFD METAR and TAF weather

Enter ICAO airport designator
Station Type Date Time Source
KCFD METAR 2021/03/05 13:15 UTC NOAA

KCFD 051315Z AUTO 15006KT 10SM OVC017 13/13 A2997 RMK AO2 T01300125


Station Type Date Time Source
KCFD Decoded METAR 2021/03/05 13:15 UTC NOAA

Station name not available
Mar 05, 2021 - 08:15 AM EST / 2021.03.05 1315 UTC
Wind: from the SSE (150 degrees) at 7 MPH (6 KT):0
Visibility: 10 mile(s):0
Sky conditions: overcast
Temperature: 55.4 F (13.0 C)
Dew Point: 54.5 F (12.5 C)
Relative Humidity: 96%
Pressure (altimeter): 29.97 in. Hg (1014 hPa)
ob: KCFD 051315Z AUTO 15006KT 10SM OVC017 13/13 A2997 RMK AO2 T01300125
cycle: 13

Station Type Date Time Source
KCFD TAF UTC NOAA

Error!

Example: see airport list